Time;durP1;ratioP1;P1;durP2;ratioP2;P2;SDS_P1;SDS_P2;PMS_P1;PMS_P2;Temp;Humidity;BMP_temperature;BMP_pressure;BME280_temperature;BME280_humidity;BME280_pressure;Samples;Min_cycle;Max_cycle;Signal;HPM_P1;HPM_P2
2023/11/09 00:01:45;;;;;;;5.27;2.40;;;8.30;99.90;;;;;;4914189;28;20210;-65
2023/11/09 00:04:12;;;;;;;7.67;1.90;;;8.30;99.90;;;;;;4913727;28;20341;-64
2023/11/09 00:06:37;;;;;;;6.83;2.37;;;8.30;99.90;;;;;;4914202;28;20729;-65
2023/11/09 00:09:03;;;;;;;4.23;1.80;;;8.30;99.90;;;;;;4913777;28;20260;-65
2023/11/09 00:11:29;;;;;;;8.20;2.27;;;8.20;99.90;;;;;;4913982;28;20204;-65
2023/11/09 00:13:55;;;;;;;8.20;2.30;;;8.20;99.90;;;;;;4913350;28;20195;-63
2023/11/09 00:16:20;;;;;;;7.73;2.40;;;8.30;99.90;;;;;;4914027;28;20188;-64
2023/11/09 00:18:48;;;;;;;4.50;2.30;;;8.20;99.90;;;;;;4914110;28;20207;-63
2023/11/09 00:21:14;;;;;;;6.30;2.37;;;8.20;99.90;;;;;;4913918;28;20214;-64
2023/11/09 00:23:39;;;;;;;5.30;1.90;;;8.20;99.90;;;;;;4913730;28;20192;-65
2023/11/09 00:26:06;;;;;;;4.37;1.80;;;8.20;99.90;;;;;;4913655;28;20195;-64
2023/11/09 00:28:32;;;;;;;3.50;1.80;;;8.20;99.90;;;;;;4909331;28;20253;-65
2023/11/09 00:30:57;;;;;;;6.63;2.17;;;8.20;99.90;;;;;;4911758;28;20689;-65
2023/11/09 00:33:23;;;;;;;3.97;1.97;;;8.20;99.90;;;;;;4913571;28;20281;-64
2023/11/09 00:35:49;;;;;;;4.63;2.00;;;8.10;99.90;;;;;;4913339;28;20184;-64
2023/11/09 00:38:15;;;;;;;4.03;1.90;;;8.10;99.90;;;;;;4913603;28;20196;-64
2023/11/09 00:40:42;;;;;;;3.47;2.07;;;8.10;99.90;;;;;;4913491;28;20208;-65
2023/11/09 00:43:07;;;;;;;4.03;1.83;;;8.10;99.90;;;;;;4912201;28;20230;-63
2023/11/09 00:45:34;;;;;;;5.33;2.23;;;8.10;99.90;;;;;;4906874;28;20918;-65
2023/11/09 00:48:02;;;;;;;3.33;1.90;;;8.10;99.90;;;;;;4911945;28;20200;-65
2023/11/09 00:50:28;;;;;;;5.80;2.03;;;8.10;99.90;;;;;;4905429;28;20224;-66
2023/11/09 00:52:53;;;;;;;3.83;2.23;;;8.10;99.90;;;;;;4913190;28;20215;-65
2023/11/09 00:55:19;;;;;;;4.90;2.00;;;8.10;99.90;;;;;;4912828;28;20195;-64
2023/11/09 00:57:45;;;;;;;4.80;2.10;;;8.10;99.90;;;;;;4946228;28;20199;-65
2023/11/09 01:00:11;;;;;;;15.13;2.13;;;8.10;99.90;;;;;;4913155;28;20211;-65
2023/11/09 01:02:38;;;;;;;4.13;1.73;;;8.10;99.90;;;;;;4906863;28;20207;-64
2023/11/09 01:05:05;;;;;;;4.40;2.00;;;8.10;99.90;;;;;;4911566;28;20577;-64
2023/11/09 01:07:31;;;;;;;4.40;1.97;;;8.10;99.90;;;;;;4913083;28;20200;-64
2023/11/09 01:09:57;;;;;;;6.60;2.03;;;8.10;99.90;;;;;;4912959;28;20251;-65
2023/11/09 01:12:23;;;;;;;7.53;2.00;;;8.00;99.90;;;;;;4905336;28;20191;-64
2023/11/09 01:14:48;;;;;;;4.07;2.10;;;8.00;99.90;;;;;;4904809;28;20189;-65
2023/11/09 01:17:14;;;;;;;3.13;1.70;;;8.00;99.90;;;;;;4913106;28;20654;-64
2023/11/09 01:19:40;;;;;;;6.80;1.90;;;8.10;99.90;;;;;;4912896;28;20199;-64
2023/11/09 01:22:05;;;;;;;5.87;1.97;;;8.00;99.90;;;;;;4912811;28;20215;-65
2023/11/09 01:24:31;;;;;;;7.33;2.10;;;8.00;99.90;;;;;;4903366;28;20238;-65
2023/11/09 01:26:57;;;;;;;5.33;1.80;;;8.00;99.90;;;;;;4912806;28;20195;-65
2023/11/09 01:29:22;;;;;;;3.20;1.90;;;8.00;99.90;;;;;;4912690;28;20219;-64
2023/11/09 01:31:49;;;;;;;8.77;2.30;;;7.90;99.90;;;;;;4912963;28;20551;-64
2023/11/09 01:34:15;;;;;;;3.53;1.70;;;7.80;99.90;;;;;;4904429;28;20187;-65
2023/11/09 01:36:40;;;;;;;7.40;1.80;;;7.80;99.90;;;;;;4912583;28;20180;-65
2023/11/09 01:39:06;;;;;;;5.40;2.43;;;7.70;99.90;;;;;;4945551;28;20247;-64
2023/11/09 01:41:32;;;;;;;6.00;1.90;;;7.70;99.90;;;;;;4912587;28;20210;-65
2023/11/09 01:43:59;;;;;;;6.33;2.10;;;7.70;99.90;;;;;;4911882;28;20586;-65
2023/11/09 01:46:26;;;;;;;5.37;1.93;;;7.70;99.90;;;;;;4904807;28;20291;-65
2023/11/09 01:48:55;;;;;;;8.20;2.33;;;7.70;99.90;;;;;;4912188;28;20266;-64
2023/11/09 01:51:21;;;;;;;6.63;2.50;;;7.70;99.90;;;;;;4912339;28;20212;-65
2023/11/09 01:53:50;;;;;;;4.00;1.83;;;7.70;99.90;;;;;;4911437;28;20215;-64
2023/11/09 01:56:18;;;;;;;6.33;2.30;;;7.80;99.90;;;;;;4912496;28;20696;-64
2023/11/09 01:58:49;;;;;;;5.63;2.17;;;7.70;99.90;;;;;;4912536;28;20892;-65
2023/11/09 02:01:16;;;;;;;4.20;2.03;;;7.70;99.90;;;;;;4905028;28;20212;-63
2023/11/09 02:03:42;;;;;;;6.00;1.63;;;7.70;99.90;;;;;;4911748;28;20204;-64
2023/11/09 02:06:09;;;;;;;7.63;2.33;;;7.70;99.90;;;;;;4904410;28;20196;-63
2023/11/09 02:08:38;;;;;;;4.20;1.93;;;7.60;99.90;;;;;;4904386;28;20341;-64
2023/11/09 02:11:05;;;;;;;6.40;2.10;;;7.60;99.90;;;;;;4910041;28;20207;-64
2023/11/09 02:13:32;;;;;;;5.87;2.13;;;7.70;99.90;;;;;;4906708;28;20192;-64
2023/11/09 02:15:59;;;;;;;3.57;1.97;;;7.70;99.90;;;;;;4911667;28;20535;-64
2023/11/09 02:18:26;;;;;;;4.07;1.90;;;7.80;99.90;;;;;;4912244;28;20195;-64
2023/11/09 02:20:52;;;;;;;4.70;1.93;;;7.80;99.90;;;;;;4911978;28;20681;-64
2023/11/09 02:23:23;;;;;;;2.40;1.50;;;7.80;99.90;;;;;;4911698;28;20279;-64
2023/11/09 02:25:49;;;;;;;10.47;2.00;;;7.80;99.90;;;;;;4903755;28;20731;-64
2023/11/09 02:28:15;;;;;;;6.83;2.17;;;7.80;99.90;;;;;;4911995;28;20222;-64
2023/11/09 02:30:41;;;;;;;3.90;1.83;;;7.80;99.90;;;;;;4902962;28;20491;-64
2023/11/09 02:33:09;;;;;;;4.87;2.10;;;7.80;99.90;;;;;;4911747;28;20211;-64
2023/11/09 02:35:37;;;;;;;5.03;1.93;;;7.80;99.90;;;;;;4910046;28;20186;-64
2023/11/09 02:38:02;;;;;;;3.70;1.90;;;7.90;99.90;;;;;;4910332;28;20196;-65
2023/11/09 02:40:28;;;;;;;6.43;1.90;;;7.90;99.90;;;;;;4911737;28;20261;-65
2023/11/09 02:42:54;;;;;;;5.80;2.10;;;7.90;99.90;;;;;;4911638;28;20199;-64
2023/11/09 02:45:19;;;;;;;5.30;1.87;;;7.90;99.90;;;;;;4911559;28;20184;-65
2023/11/09 02:47:45;;;;;;;4.80;2.00;;;7.90;99.90;;;;;;4911567;28;20218;-65
2023/11/09 02:50:10;;;;;;;7.67;2.17;;;7.80;99.90;;;;;;4903553;28;20391;-65
2023/11/09 02:52:36;;;;;;;6.03;2.00;;;7.90;99.90;;;;;;4911494;28;20195;-65
2023/11/09 02:55:02;;;;;;;8.27;1.93;;;7.90;99.90;;;;;;4911245;28;20634;-65
2023/11/09 02:57:29;;;;;;;4.43;1.90;;;7.90;99.90;;;;;;4903699;28;20265;-65
2023/11/09 02:59:55;;;;;;;6.17;2.20;;;7.90;99.90;;;;;;4911594;28;20216;-65
2023/11/09 03:02:21;;;;;;;4.17;2.17;;;7.90;99.90;;;;;;4911530;28;20238;-65
2023/11/09 03:04:47;;;;;;;3.50;1.90;;;7.90;99.90;;;;;;4910678;28;20195;-64
2023/11/09 03:07:13;;;;;;;4.90;2.00;;;7.90;99.90;;;;;;4910891;28;20188;-64
2023/11/09 03:09:40;;;;;;;4.90;1.80;;;7.90;99.90;;;;;;4911208;28;20347;-65
2023/11/09 03:12:06;;;;;;;6.20;2.23;;;7.90;99.90;;;;;;4911388;28;20199;-65
2023/11/09 03:14:33;;;;;;;3.23;1.83;;;7.90;99.90;;;;;;4909374;28;20754;-65
2023/11/09 03:17:06;;;;;;;3.37;1.87;;;7.80;99.90;;;;;;4911144;28;20646;-64
2023/11/09 03:19:32;;;;;;;5.87;2.03;;;7.90;99.90;;;;;;4911296;28;20192;-64
2023/11/09 03:21:57;;;;;;;5.30;2.07;;;7.80;99.90;;;;;;4911258;28;20583;-64
2023/11/09 03:24:23;;;;;;;5.17;2.27;;;7.70;99.90;;;;;;4910536;28;20203;-64
2023/11/09 03:26:48;;;;;;;6.23;2.20;;;7.70;99.90;;;;;;4911248;28;20202;-63
2023/11/09 03:29:14;;;;;;;3.50;2.00;;;7.70;99.90;;;;;;4911062;28;20207;-63
2023/11/09 03:31:39;;;;;;;7.07;2.07;;;7.70;99.90;;;;;;4911031;28;20210;-64
2023/11/09 03:34:05;;;;;;;4.67;1.90;;;7.70;99.90;;;;;;4910362;28;20218;-63
2023/11/09 03:36:30;;;;;;;4.67;2.00;;;7.70;99.90;;;;;;4911384;28;20200;-64
2023/11/09 03:38:56;;;;;;;4.53;2.20;;;7.80;99.90;;;;;;4910882;28;20222;-62
2023/11/09 03:41:24;;;;;;;3.10;1.90;;;7.80;99.90;;;;;;4911241;28;20245;-63
2023/11/09 03:43:49;;;;;;;5.40;1.83;;;7.80;99.90;;;;;;4910516;28;20711;-64
2023/11/09 03:46:15;;;;;;;4.20;2.07;;;7.80;99.90;;;;;;4909858;28;20187;-64
2023/11/09 03:48:41;;;;;;;5.17;1.90;;;7.80;99.90;;;;;;4910944;28;20215;-64
2023/11/09 03:51:07;;;;;;;8.63;2.27;;;7.70;99.90;;;;;;4910929;28;20239;-63
2023/11/09 03:53:33;;;;;;;4.63;2.17;;;7.70;99.90;;;;;;4935165;28;20196;-64
2023/11/09 03:55:58;;;;;;;5.93;2.43;;;7.80;99.90;;;;;;4910985;28;20572;-64
2023/11/09 03:58:24;;;;;;;9.17;2.23;;;7.80;99.90;;;;;;4911106;28;20220;-64
2023/11/09 04:00:49;;;;;;;5.13;2.20;;;7.80;99.90;;;;;;4910788;28;20220;-63
2023/11/09 04:03:15;;;;;;;3.93;2.00;;;7.70;99.90;;;;;;4910522;28;20191;-63
2023/11/09 04:05:41;;;;;;;4.43;1.93;;;7.70;99.90;;;;;;4910787;28;20249;-63
2023/11/09 04:08:06;;;;;;;5.53;2.10;;;7.80;99.90;;;;;;4910683;28;20214;-64
2023/11/09 04:10:32;;;;;;;4.23;2.20;;;7.80;99.90;;;;;;4910706;28;20688;-65
2023/11/09 04:12:57;;;;;;;4.30;1.80;;;7.80;99.90;;;;;;4909457;28;20195;-64
2023/11/09 04:15:23;;;;;;;4.93;2.20;;;7.70;99.90;;;;;;4903415;28;20196;-65
2023/11/09 04:17:48;;;;;;;3.70;2.07;;;7.70;99.90;;;;;;4912548;28;20195;-64
2023/11/09 04:20:16;;;;;;;5.57;2.10;;;7.70;99.90;;;;;;4906078;28;20296;-64
2023/11/09 04:22:43;;;;;;;7.47;1.80;;;7.70;99.90;;;;;;4897204;28;20223;-65
2023/11/09 04:25:09;;;;;;;4.67;2.30;;;7.80;99.90;;;;;;4913448;28;20278;-64
2023/11/09 04:27:36;;;;;;;6.47;2.00;;;7.80;99.90;;;;;;4914045;28;20192;-65
2023/11/09 04:30:03;;;;;;;3.40;1.97;;;7.80;99.90;;;;;;4913705;28;20223;-65
2023/11/09 04:32:29;;;;;;;2.47;1.70;;;7.80;99.90;;;;;;4913659;28;20254;-65
2023/11/09 04:34:56;;;;;;;4.70;1.90;;;7.80;99.90;;;;;;4913191;28;20786;-65
2023/11/09 04:37:22;;;;;;;4.83;2.17;;;7.80;99.90;;;;;;4913717;28;20266;-65
2023/11/09 04:39:51;;;;;;;4.77;2.00;;;7.80;99.90;;;;;;4913630;28;20234;-63
2023/11/09 04:42:19;;;;;;;5.30;1.97;;;7.80;99.90;;;;;;4906158;28;20645;-65
2023/11/09 04:44:50;;;;;;;3.30;1.70;;;7.80;99.90;;;;;;4912914;28;20195;-65
2023/11/09 04:47:21;;;;;;;5.80;2.13;;;7.80;99.90;;;;;;4913488;28;20668;-65
2023/11/09 04:49:57;;;;;;;6.47;2.00;;;7.80;99.90;;;;;;4913503;28;20215;-64
2023/11/09 04:52:25;;;;;;;4.93;2.23;;;7.70;99.90;;;;;;4913428;28;20673;-65
2023/11/09 04:54:56;;;;;;;8.97;3.60;;;7.70;99.90;;;;;;4912878;28;20204;-64
2023/11/09 05:08:24;;;;;;;3.97;2.00;;;7.80;99.90;;;;;;4906378;28;20776;-65
2023/11/09 05:10:50;;;;;;;6.67;2.40;;;7.80;99.90;;;;;;4913043;28;20287;-64
2023/11/09 05:13:15;;;;;;;5.93;2.37;;;7.70;99.90;;;;;;4913034;28;20196;-65
2023/11/09 05:15:41;;;;;;;9.23;2.50;;;7.80;99.90;;;;;;4912678;28;20562;-65
2023/11/09 05:18:07;;;;;;;4.17;2.20;;;7.80;99.90;;;;;;4913027;28;20207;-65
2023/11/09 05:20:32;;;;;;;3.43;2.20;;;7.80;99.90;;;;;;4913111;28;20247;-65
2023/11/09 05:22:58;;;;;;;6.73;2.03;;;7.80;99.90;;;;;;4912953;28;20187;-64
2023/11/09 05:25:28;;;;;;;5.53;2.37;;;7.70;99.90;;;;;;4912434;28;20195;-65
2023/11/09 05:27:54;;;;;;;6.03;2.37;;;7.80;99.90;;;;;;4912870;28;20653;-65
2023/11/09 05:30:20;;;;;;;3.80;2.37;;;7.80;99.90;;;;;;4912254;28;20211;-64
2023/11/09 05:32:46;;;;;;;6.63;2.50;;;7.80;99.90;;;;;;4912711;28;20220;-65
2023/11/09 05:35:11;;;;;;;17.20;6.90;;;7.80;99.90;;;;;;4912206;28;20199;-65
2023/11/09 05:37:37;;;;;;;8.37;3.90;;;7.80;99.90;;;;;;4945725;28;20188;-65
2023/11/09 05:40:07;;;;;;;22.00;8.43;;;7.80;99.90;;;;;;4904885;28;20598;-65
2023/11/09 05:42:41;;;;;;;5.20;2.50;;;7.90;99.90;;;;;;4945869;28;20198;-65
2023/11/09 05:45:07;;;;;;;5.77;2.43;;;7.90;99.90;;;;;;4945075;28;20184;-65
2023/11/09 05:47:33;;;;;;;4.47;2.30;;;7.80;99.90;;;;;;4911194;28;20676;-65
2023/11/09 05:49:59;;;;;;;5.13;1.90;;;7.80;99.90;;;;;;4904652;28;20216;-65
2023/11/09 05:52:25;;;;;;;3.93;2.00;;;7.90;99.90;;;;;;4911563;28;20192;-64
2023/11/09 05:54:50;;;;;;;4.00;2.30;;;7.90;99.90;;;;;;4912011;28;20200;-63
2023/11/09 05:57:16;;;;;;;8.00;2.60;;;7.90;99.90;;;;;;4912581;28;20216;-64
2023/11/09 05:59:42;;;;;;;6.10;2.33;;;7.80;99.90;;;;;;4912442;28;20232;-64
2023/11/09 06:02:08;;;;;;;6.63;2.60;;;7.90;99.90;;;;;;4912325;28;20656;-64
2023/11/09 06:04:35;;;;;;;5.57;2.60;;;7.90;99.90;;;;;;4911927;28;20195;-64
2023/11/09 06:07:01;;;;;;;31.67;11.70;;;7.90;99.90;;;;;;4912266;28;20187;-65
2023/11/09 06:09:29;;;;;;;6.63;3.30;;;7.90;99.90;;;;;;4912150;28;20486;-65
2023/11/09 06:11:56;;;;;;;5.70;2.60;;;7.80;99.90;;;;;;4904553;28;20204;-65
2023/11/09 06:14:23;;;;;;;9.23;2.63;;;7.80;99.90;;;;;;4911661;28;20187;-65
2023/11/09 06:16:49;;;;;;;4.77;2.30;;;7.90;99.90;;;;;;4912508;28;20220;-64
2023/11/09 06:19:14;;;;;;;6.00;2.67;;;7.90;99.90;;;;;;4911899;28;20199;-64
2023/11/09 06:21:40;;;;;;;5.00;2.40;;;7.90;99.90;;;;;;4912211;28;20203;-65
2023/11/09 06:24:07;;;;;;;16.87;5.00;;;7.90;99.90;;;;;;4911567;28;20605;-64
2023/11/09 06:26:33;;;;;;;14.10;5.73;;;7.90;99.90;;;;;;4912137;28;20226;-65
2023/11/09 06:28:59;;;;;;;8.70;3.00;;;7.90;99.90;;;;;;4911747;28;20207;-65
2023/11/09 06:31:26;;;;;;;6.33;2.70;;;7.90;99.90;;;;;;4911989;28;20583;-65
2023/11/09 06:33:53;;;;;;;6.17;3.10;;;7.90;99.90;;;;;;4911428;28;20600;-65
2023/11/09 06:36:20;;;;;;;8.53;3.27;;;7.90;99.90;;;;;;4911931;28;20645;-63
2023/11/09 06:38:46;;;;;;;11.40;3.27;;;7.80;99.90;;;;;;4911734;28;20195;-64
2023/11/09 06:41:13;;;;;;;8.33;2.87;;;7.80;99.90;;;;;;4910688;28;20614;-63
2023/11/09 06:43:38;;;;;;;7.07;2.60;;;7.80;99.90;;;;;;4902648;28;20657;-63
2023/11/09 06:46:05;;;;;;;4.10;2.67;;;7.90;99.90;;;;;;4909646;28;20195;-63
2023/11/09 06:48:30;;;;;;;8.57;3.80;;;7.80;99.90;;;;;;4900733;28;20631;-64
2023/11/09 06:50:56;;;;;;;15.07;6.70;;;7.80;99.90;;;;;;4909198;28;20240;-63
2023/11/09 06:53:22;;;;;;;9.13;3.60;;;7.80;99.90;;;;;;4911400;28;20203;-64
2023/11/09 06:55:47;;;;;;;7.20;3.13;;;7.80;99.90;;;;;;4911314;28;20279;-63
2023/11/09 06:58:13;;;;;;;6.47;3.10;;;7.80;99.90;;;;;;4911415;28;20741;-63
2023/11/09 07:00:39;;;;;;;10.43;3.33;;;7.90;99.90;;;;;;4903929;28;20241;-62
2023/11/09 07:03:05;;;;;;;7.53;3.40;;;7.90;99.90;;;;;;4911357;28;20188;-63
2023/11/09 07:05:30;;;;;;;9.90;3.10;;;7.90;99.90;;;;;;4910992;28;20184;-62
2023/11/09 07:07:56;;;;;;;6.53;3.47;;;7.90;99.90;;;;;;4911367;28;20192;-63
2023/11/09 07:10:23;;;;;;;5.67;2.43;;;7.90;99.90;;;;;;4903664;28;20207;-63
2023/11/09 07:12:49;;;;;;;6.20;3.57;;;7.90;99.90;;;;;;4911377;28;20188;-64
2023/11/09 07:15:16;;;;;;;8.13;3.40;;;7.90;99.90;;;;;;4902440;28;20192;-63
2023/11/09 07:17:41;;;;;;;8.50;4.57;;;7.90;99.90;;;;;;4910933;28;20184;-63
2023/11/09 07:20:09;;;;;;;8.07;4.80;;;7.90;99.90;;;;;;4910720;28;20299;-62
2023/11/09 07:22:35;;;;;;;20.07;8.93;;;7.90;99.90;;;;;;4910562;28;20187;-60
2023/11/09 07:25:02;;;;;;;10.87;6.20;;;8.00;99.90;;;;;;4909981;28;20194;-64
2023/11/09 07:27:28;;;;;;;15.70;5.93;;;8.00;99.90;;;;;;4902724;28;20180;-64
2023/11/09 07:29:54;;;;;;;9.10;4.03;;;8.00;99.90;;;;;;4902748;28;20243;-63
2023/11/09 07:32:19;;;;;;;5.73;3.33;;;8.10;99.90;;;;;;4906923;28;20191;-64
2023/11/09 07:34:45;;;;;;;8.63;3.10;;;8.10;99.90;;;;;;4906091;28;20192;-64
2023/11/09 07:37:14;;;;;;;6.20;2.63;;;8.10;99.90;;;;;;4943485;28;20196;-64
2023/11/09 07:39:40;;;;;;;15.37;9.87;;;8.20;99.90;;;;;;4910204;28;20693;-64
2023/11/09 07:42:06;;;;;;;13.17;7.20;;;8.10;99.90;;;;;;4910282;28;20212;-63
2023/11/09 07:44:33;;;;;;;6.83;3.57;;;8.20;99.90;;;;;;4909946;28;20184;-64
2023/11/09 07:46:58;;;;;;;8.03;3.47;;;8.20;99.90;;;;;;4910587;28;20196;-64
2023/11/09 07:49:29;;;;;;;11.33;3.77;;;8.20;99.90;;;;;;4908901;28;20228;-64
2023/11/09 07:51:54;;;;;;;8.73;5.10;;;8.10;99.90;;;;;;4911126;28;20192;-64
2023/11/09 07:54:21;;;;;;;11.47;4.37;;;8.10;99.90;;;;;;4912841;28;20557;-64
2023/11/09 07:56:49;;;;;;;7.97;3.57;;;8.10;99.90;;;;;;4913488;28;20192;-64
2023/11/09 07:59:16;;;;;;;4.83;2.97;;;8.20;99.90;;;;;;4904416;28;20188;-64
2023/11/09 08:01:41;;;;;;;5.27;3.40;;;8.10;99.90;;;;;;4906114;28;20283;-64
2023/11/09 08:04:08;;;;;;;7.60;3.70;;;8.20;99.90;;;;;;4901965;28;20319;-63
2023/11/09 08:06:34;;;;;;;11.70;9.10;;;8.20;99.90;;;;;;4902447;28;20227;-64
2023/11/09 08:09:00;;;;;;;9.03;4.10;;;8.20;99.90;;;;;;4911309;28;20607;-64
2023/11/09 08:11:26;;;;;;;4.97;2.93;;;8.20;99.90;;;;;;4913340;28;20204;-64
2023/11/09 08:13:52;;;;;;;6.23;3.10;;;8.30;99.90;;;;;;4905107;28;20192;-64
2023/11/09 08:16:18;;;;;;;7.90;3.43;;;8.30;99.90;;;;;;4905473;28;20613;-64
2023/11/09 08:18:44;;;;;;;5.40;3.13;;;8.40;99.90;;;;;;4905702;28;20196;-64
2023/11/09 08:21:10;;;;;;;6.40;3.50;;;8.50;99.90;;;;;;4905351;28;20211;-64
2023/11/09 08:23:36;;;;;;;20.07;9.97;;;8.50;99.90;;;;;;4912870;28;20263;-64
2023/11/09 08:26:04;;;;;;;21.63;8.47;;;8.50;99.90;;;;;;4912719;28;20717;-64
2023/11/09 08:28:30;;;;;;;7.13;3.20;;;8.50;99.90;;;;;;4913070;28;20278;-64
2023/11/09 08:30:55;;;;;;;6.07;2.27;;;8.50;99.90;;;;;;4944922;28;20205;-64
2023/11/09 08:33:23;;;;;;;9.13;4.77;;;8.40;99.90;;;;;;4913025;28;20186;-64
2023/11/09 08:35:51;;;;;;;18.83;11.40;;;8.50;99.90;;;;;;4912786;28;20278;-63
2023/11/09 08:38:17;;;;;;;16.13;10.13;;;8.60;99.90;;;;;;4912717;28;20192;-64
2023/11/09 08:40:48;;;;;;;20.53;8.57;;;8.60;99.90;;;;;;4912948;28;20720;-63
2023/11/09 08:43:13;;;;;;;3.47;2.40;;;8.60;99.90;;;;;;4907033;28;20184;-64
2023/11/09 08:45:40;;;;;;;6.03;2.40;;;8.70;99.90;;;;;;4907412;28;20266;-63
2023/11/09 08:48:07;;;;;;;4.47;2.20;;;8.70;99.90;;;;;;4944538;28;20195;-64
2023/11/09 08:50:35;;;;;;;3.33;1.60;;;8.70;99.90;;;;;;4912661;28;20772;-64
2023/11/09 08:53:01;;;;;;;3.77;1.50;;;8.80;99.90;;;;;;4912657;28;20278;-64
2023/11/09 08:55:27;;;;;;;3.43;1.30;;;8.80;99.90;;;;;;4904539;28;20198;-64
2023/11/09 08:57:54;;;;;;;1.70;1.30;;;8.70;99.90;;;;;;4912776;28;20204;-63
2023/11/09 09:00:23;;;;;;;2.10;1.20;;;8.70;99.90;;;;;;4912807;28;20210;-65
2023/11/09 09:02:49;;;;;;;1.93;1.00;;;8.70;99.90;;;;;;4912534;28;20332;-64
2023/11/09 09:05:32;;;;;;;2.73;1.30;;;8.80;99.90;;;;;;4908461;28;20658;-63
2023/11/09 09:07:59;;;;;;;7.07;4.87;;;8.90;99.90;;;;;;4909955;28;20617;-65
2023/11/09 09:10:27;;;;;;;4.27;1.57;;;8.90;99.90;;;;;;4912457;28;20302;-65
2023/11/09 09:12:55;;;;;;;3.93;1.60;;;8.90;99.90;;;;;;4912505;28;20558;-63
2023/11/09 09:15:20;;;;;;;5.43;1.53;;;9.00;99.90;;;;;;4912019;28;20185;-64
2023/11/09 09:17:48;;;;;;;2.17;1.20;;;9.10;99.90;;;;;;4906594;28;20196;-64
2023/11/09 09:20:21;;;;;;;1.00;0.70;;;9.10;99.90;;;;;;4959901;28;20220;-64
2023/11/09 09:22:54;;;;;;;1.83;0.90;;;9.10;99.90;;;;;;4950892;28;20597;-63
2023/11/09 09:25:22;;;;;;;2.23;1.30;;;9.10;99.90;;;;;;4953495;28;20544;-65
2023/11/09 09:27:49;;;;;;;2.87;1.77;;;9.20;99.90;;;;;;4964959;28;20196;-64
2023/11/09 09:30:18;;;;;;;2.43;2.00;;;9.30;99.90;;;;;;4962629;28;20204;-63
2023/11/09 09:32:47;;;;;;;3.63;2.30;;;9.30;99.90;;;;;;4946365;28;20204;-64
2023/11/09 09:35:13;;;;;;;0.70;0.60;;;9.30;99.90;;;;;;4955724;28;20195;-63
2023/11/09 09:37:40;;;;;;;1.97;1.00;;;9.40;99.90;;;;;;4952459;28;20192;-63
2023/11/09 09:40:15;;;;;;;1.57;0.70;;;9.30;99.90;;;;;;4928002;28;20680;-64
2023/11/09 09:42:46;;;;;;;0.87;0.73;;;9.20;99.90;;;;;;4912005;28;20191;-64
2023/11/09 09:45:15;;;;;;;3.43;0.80;;;9.20;99.90;;;;;;4911708;28;20196;-65
2023/11/09 09:47:52;;;;;;;1.10;0.67;;;9.30;99.90;;;;;;4905854;28;20200;-64
2023/11/09 09:50:22;;;;;;;2.93;0.80;;;9.20;99.90;;;;;;4936726;28;20230;-65
2023/11/09 09:52:50;;;;;;;2.27;0.90;;;9.30;99.90;;;;;;4948483;28;20279;-64
2023/11/09 09:55:18;;;;;;;5.43;1.00;;;9.40;99.90;;;;;;4963749;28;20650;-64
2023/11/09 09:57:44;;;;;;;1.37;0.80;;;9.30;99.90;;;;;;4911810;28;20191;-65
2023/11/09 10:00:23;;;;;;;1.53;0.80;;;9.30;99.90;;;;;;4911169;28;20402;-65
2023/11/09 10:02:49;;;;;;;2.77;0.80;;;9.40;99.90;;;;;;4911938;28;20187;-65
2023/11/09 10:05:17;;;;;;;2.53;0.87;;;9.30;99.90;;;;;;4910980;28;20192;-64
2023/11/09 10:08:20;;;;;;;1.33;0.70;;;9.20;99.90;;;;;;4911766;28;20188;-65
2023/11/09 10:10:49;;;;;;;1.67;1.10;;;9.10;99.90;;;;;;5000177;28;20783;-64
2023/11/09 10:13:15;;;;;;;1.27;0.87;;;9.10;99.90;;;;;;4927840;28;20192;-64
2023/11/09 10:15:43;;;;;;;3.20;1.03;;;9.00;99.90;;;;;;4910839;28;20619;-64
2023/11/09 10:18:12;;;;;;;3.40;1.20;;;8.90;99.90;;;;;;4903524;28;20236;-64
2023/11/09 10:20:57;;;;;;;2.30;1.40;;;8.90;99.90;;;;;;4911375;28;20302;-63
2023/11/09 10:23:23;;;;;;;2.90;1.30;;;8.80;99.90;;;;;;4911281;28;20728;-63
2023/11/09 10:25:49;;;;;;;5.17;1.30;;;8.90;99.90;;;;;;4911048;28;20192;-63
2023/11/09 10:28:16;;;;;;;4.00;2.33;;;8.80;99.90;;;;;;4911327;28;20231;-63
2023/11/09 10:30:45;;;;;;;2.13;1.50;;;8.90;99.90;;;;;;4910512;28;20204;-63
2023/11/09 10:33:11;;;;;;;3.20;1.80;;;8.90;99.90;;;;;;4943010;28;20666;-61
2023/11/09 10:35:38;;;;;;;3.03;1.70;;;8.90;99.90;;;;;;4910640;28;20676;-63
2023/11/09 10:38:08;;;;;;;2.20;1.63;;;8.90;99.90;;;;;;4943764;28;20720;-63
2023/11/09 10:40:34;;;;;;;2.77;1.70;;;9.00;99.90;;;;;;4905996;28;20216;-62
2023/11/09 10:43:05;;;;;;;2.53;1.90;;;9.00;99.90;;;;;;4900935;28;20189;-64
2023/11/09 10:45:36;;;;;;;4.57;1.80;;;9.10;99.90;;;;;;4905641;28;20200;-63
2023/11/09 10:48:07;;;;;;;4.10;2.00;;;9.10;99.90;;;;;;4908873;28;20219;-64
2023/11/09 10:50:34;;;;;;;3.10;1.87;;;9.10;99.90;;;;;;4911118;28;20234;-64
2023/11/09 10:53:00;;;;;;;3.30;1.80;;;9.20;99.90;;;;;;4910847;28;20206;-64
2023/11/09 10:55:26;;;;;;;3.83;1.90;;;9.10;99.90;;;;;;4906210;28;20574;-64
2023/11/09 10:57:52;;;;;;;2.30;1.70;;;9.20;99.90;;;;;;4907520;28;20218;-63
2023/11/09 11:00:31;;;;;;;2.83;1.80;;;9.20;99.90;;;;;;4911070;28;20576;-63
2023/11/09 11:03:08;;;;;;;3.63;1.70;;;9.10;99.90;;;;;;4910973;28;20238;-63
2023/11/09 11:05:40;;;;;;;2.43;1.70;;;9.10;99.90;;;;;;4905229;28;20184;-63
2023/11/09 11:08:07;;;;;;;2.77;2.47;;;9.10;99.90;;;;;;4901304;28;20243;-63
2023/11/09 11:10:35;;;;;;;3.27;1.70;;;9.10;99.90;;;;;;4910686;28;20216;-63
2023/11/09 11:13:05;;;;;;;2.93;1.60;;;9.10;99.90;;;;;;4909958;28;20180;-63
2023/11/09 11:15:59;;;;;;;2.20;1.50;;;9.10;99.90;;;;;;4903981;28;20191;-64
2023/11/09 11:18:46;;;;;;;2.60;1.80;;;9.10;99.90;;;;;;4903742;28;20259;-63
2023/11/09 11:21:20;;;;;;;3.00;1.70;;;9.20;99.90;;;;;;4910880;28;20685;-64
2023/11/09 11:24:24;;;;;;;1.87;1.30;;;9.10;99.90;;;;;;4903320;28;20184;-63
2023/11/09 11:27:14;;;;;;;4.10;1.77;;;9.10;99.90;;;;;;4908967;28;20179;-64
2023/11/09 11:29:40;;;;;;;5.30;2.00;;;9.10;99.90;;;;;;4911981;28;20203;-64
2023/11/09 11:32:10;;;;;;;3.13;2.03;;;9.20;99.90;;;;;;4916783;28;20653;-64
2023/11/09 11:34:54;;;;;;;2.60;2.00;;;9.20;99.90;;;;;;4916324;28;20178;-63
2023/11/09 11:37:28;;;;;;;1.80;1.40;;;9.20;99.90;;;;;;4916852;28;20208;-63
2023/11/09 11:39:54;;;;;;;2.57;1.60;;;9.10;99.90;;;;;;4908956;28;20211;-63
2023/11/09 11:42:25;;;;;;;2.80;1.77;;;9.10;99.90;;;;;;4916917;28;20176;-63
2023/11/09 11:44:55;;;;;;;2.60;1.50;;;9.20;99.90;;;;;;4916132;28;20547;-64
2023/11/09 11:47:24;;;;;;;2.67;1.53;;;9.10;99.90;;;;;;4909136;28;20510;-64
2023/11/09 11:49:50;;;;;;;2.10;1.60;;;9.10;99.90;;;;;;4916288;28;20227;-64
2023/11/09 11:52:19;;;;;;;3.47;1.53;;;9.10;99.90;;;;;;4908003;28;20268;-63
2023/11/09 11:54:45;;;;;;;3.17;1.30;;;9.10;99.90;;;;;;4916154;28;20602;-64
2023/11/09 11:57:15;;;;;;;3.50;1.50;;;9.20;99.90;;;;;;4916697;28;20267;-64
2023/11/09 11:59:42;;;;;;;2.50;1.40;;;9.30;99.90;;;;;;4916475;28;20212;-64
2023/11/09 12:02:12;;;;;;;4.03;1.50;;;9.30;99.90;;;;;;4916469;28;20270;-64
2023/11/09 12:04:47;;;;;;;2.83;1.60;;;9.30;99.90;;;;;;4915873;28;20234;-64
2023/11/09 12:07:18;;;;;;;2.37;1.53;;;9.30;99.90;;;;;;4914264;28;20187;-63
2023/11/09 12:09:48;;;;;;;4.50;3.37;;;9.30;99.90;;;;;;4911727;28;20216;-64
2023/11/09 12:12:14;;;;;;;3.23;1.70;;;9.30;99.90;;;;;;4908503;28;20197;-63
2023/11/09 12:14:49;;;;;;;2.63;1.40;;;9.30;99.90;;;;;;4915870;28;20180;-65
2023/11/09 12:17:14;;;;;;;2.80;1.40;;;9.30;99.90;;;;;;4916232;28;20191;-65
2023/11/09 12:19:43;;;;;;;1.90;1.30;;;9.40;99.90;;;;;;4916223;28;20225;-63
2023/11/09 12:22:10;;;;;;;4.00;2.40;;;9.30;99.90;;;;;;4914907;28;20214;-64
2023/11/09 12:24:37;;;;;;;9.60;3.27;;;9.30;99.90;;;;;;4915818;28;20186;-64
2023/11/09 12:27:08;;;;;;;4.60;2.80;;;9.40;99.90;;;;;;4916235;28;20192;-63
2023/11/09 12:29:42;;;;;;;8.33;3.40;;;9.40;99.90;;;;;;4916205;28;20206;-64
2023/11/09 12:32:08;;;;;;;3.60;1.87;;;9.50;99.90;;;;;;4916310;28;20262;-65
2023/11/09 12:34:41;;;;;;;4.57;2.47;;;9.50;99.90;;;;;;4908092;28;20207;-65
2023/11/09 12:37:13;;;;;;;5.20;2.60;;;9.50;99.90;;;;;;4949224;28;20244;-64
2023/11/09 12:39:40;;;;;;;4.17;2.10;;;9.60;99.90;;;;;;4913019;28;20208;-64
2023/11/09 12:42:06;;;;;;;4.13;2.10;;;9.70;99.90;;;;;;4919024;28;20188;-65
2023/11/09 12:44:35;;;;;;;3.20;2.10;;;9.70;99.90;;;;;;4939102;28;20186;-65
2023/11/09 12:47:07;;;;;;;6.77;2.90;;;9.80;99.90;;;;;;4912773;28;20222;-65
2023/11/09 12:49:33;;;;;;;5.43;2.67;;;9.90;99.90;;;;;;4912492;28;20262;-65
2023/11/09 12:52:04;;;;;;;5.47;2.37;;;9.90;99.90;;;;;;4905000;28;20189;-65
2023/11/09 12:54:30;;;;;;;6.53;2.07;;;10.00;99.90;;;;;;4910708;28;20246;-65
2023/11/09 12:56:56;;;;;;;6.60;2.00;;;10.00;99.90;;;;;;4911843;28;20184;-64
2023/11/09 12:59:28;;;;;;;3.13;1.90;;;10.10;99.90;;;;;;4911690;28;20673;-64
2023/11/09 13:02:03;;;;;;;6.87;3.03;;;10.10;99.90;;;;;;4912775;28;20246;-64
2023/11/09 13:04:37;;;;;;;9.73;4.27;;;10.10;99.90;;;;;;4907638;28;20662;-63
2023/11/09 13:07:04;;;;;;;9.87;4.27;;;10.00;99.90;;;;;;4910210;28;20378;-64
2023/11/09 13:14:48;;;;;;;8.10;4.40;;;10.00;99.90;;;;;;4900977;28;20235;-64